createdAt,value
2019-02-11T00:00:38.541Z,1.50
2019-02-11T00:04:51.259Z,1.77
2019-02-11T00:09:05.344Z,1.20
2019-02-11T00:13:18.195Z,1.50
2019-02-11T00:17:30.760Z,1.47
2019-02-11T00:21:43.171Z,1.33
2019-02-11T00:25:55.485Z,1.57
2019-02-11T00:30:08.584Z,1.33
2019-02-11T00:34:20.933Z,1.33
2019-02-11T00:38:33.341Z,1.83
2019-02-11T00:42:46.857Z,1.50
2019-02-11T00:46:59.675Z,1.40
2019-02-11T00:51:12.138Z,1.50
2019-02-11T00:55:24.633Z,1.37
2019-02-11T00:59:37.496Z,1.43
2019-02-11T01:03:49.895Z,1.97
2019-02-11T01:08:02.209Z,2.27
2019-02-11T01:12:15.273Z,2.27
2019-02-11T01:16:27.704Z,2.00
2019-02-11T01:20:40.120Z,2.17
2019-02-11T01:24:52.971Z,2.30
2019-02-11T01:29:05.421Z,2.10
2019-02-11T01:33:17.831Z,2.20
2019-02-11T01:37:30.245Z,2.20
2019-02-11T01:41:43.132Z,2.20
2019-02-11T01:45:55.643Z,2.43
2019-02-11T01:50:09.188Z,2.20
2019-02-11T01:54:21.436Z,2.43
2019-02-11T01:58:34.329Z,3.03
2019-02-11T02:02:46.947Z,2.33
2019-02-11T02:06:59.189Z,2.03
2019-02-11T02:11:12.437Z,4.40
2019-02-11T02:15:24.908Z,2.97
2019-02-11T02:19:37.828Z,2.70
2019-02-11T02:23:50.196Z,2.67
2019-02-11T02:28:02.599Z,3.40
2019-02-11T02:32:16.516Z,2.53
2019-02-11T02:36:29.084Z,2.60
2019-02-11T02:40:41.498Z,2.17
2019-02-11T02:44:54.545Z,1.90
2019-02-11T02:49:07.140Z,2.23
2019-02-11T02:53:19.451Z,2.10
2019-02-11T02:57:32.353Z,2.20
2019-02-11T03:01:44.865Z,2.20
2019-02-11T03:05:57.687Z,2.37
2019-02-11T03:10:10.347Z,3.40
2019-02-11T03:14:22.665Z,4.53
2019-02-11T03:18:35.508Z,3.47
2019-02-11T03:22:48.013Z,3.40
2019-02-11T03:27:00.424Z,3.20
2019-02-11T03:31:13.420Z,3.37
2019-02-11T03:35:25.968Z,3.03
2019-02-11T03:39:38.288Z,2.53
2019-02-11T03:43:51.168Z,2.40
2019-02-11T03:48:03.826Z,3.07
2019-02-11T03:52:17.373Z,2.33
2019-02-11T03:56:29.346Z,2.40
2019-02-11T04:00:42.435Z,2.50
2019-02-11T04:04:54.936Z,2.00
2019-02-11T04:09:07.995Z,2.33
2019-02-11T04:13:20.571Z,3.13
2019-02-11T04:17:32.995Z,2.47
2019-02-11T04:21:45.468Z,2.20
2019-02-11T04:25:58.195Z,2.23
2019-02-11T04:30:10.853Z,2.30
2019-02-11T04:34:23.156Z,2.60
2019-02-11T04:38:35.952Z,2.90
2019-02-11T04:42:48.422Z,2.53
2019-02-11T04:47:00.824Z,2.57
2019-02-11T04:51:13.672Z,2.97
2019-02-11T04:55:26.170Z,3.00
2019-02-11T04:59:38.685Z,2.93
2019-02-11T05:03:51.539Z,2.97
2019-02-11T05:08:04.131Z,3.00
2019-02-11T05:12:16.543Z,2.60
2019-02-11T05:16:29.004Z,2.77
2019-02-11T05:20:41.817Z,3.90
2019-02-11T05:24:54.414Z,3.07
2019-02-11T05:29:06.815Z,3.07
2019-02-11T05:33:19.177Z,2.63
2019-02-11T05:37:31.920Z,2.70
2019-02-11T05:41:45.633Z,3.20
2019-02-11T05:45:58.123Z,3.43
2019-02-11T05:50:11.485Z,2.87
2019-02-11T05:54:23.875Z,3.10
2019-02-11T05:58:36.296Z,2.67
2019-02-11T06:02:49.196Z,3.10
2019-02-11T06:07:01.633Z,2.40
2019-02-11T06:11:14.623Z,2.50
2019-02-11T06:15:27.282Z,3.57
2019-02-11T06:19:40.273Z,3.13
2019-02-11T06:23:52.804Z,2.73
2019-02-11T06:28:05.049Z,3.80
2019-02-11T06:32:17.932Z,3.63
2019-02-11T06:36:30.389Z,3.43
2019-02-11T06:40:43.369Z,3.40
2019-02-11T06:44:55.935Z,3.27
2019-02-11T06:49:08.249Z,3.13
2019-02-11T06:53:21.306Z,3.60
2019-02-11T06:57:33.808Z,2.83
2019-02-11T07:01:46.209Z,2.63
2019-02-11T07:05:59.168Z,6.37
2019-02-11T07:10:11.872Z,3.83
2019-02-11T07:14:24.749Z,6.30
2019-02-11T07:18:37.309Z,6.83
2019-02-11T07:22:50.954Z,4.30
2019-02-11T07:27:03.431Z,3.27
2019-02-11T07:31:16.257Z,3.80
2019-02-11T07:35:28.772Z,2.90
2019-02-11T07:39:41.595Z,3.33
2019-02-11T07:44:02.989Z,3.60
2019-02-11T07:48:15.483Z,3.10
2019-02-11T07:52:28.737Z,2.60
2019-02-11T07:56:41.301Z,3.00
2019-02-11T08:00:54.353Z,2.97
2019-02-11T08:05:06.798Z,2.80
2019-02-11T08:09:19.777Z,2.80
2019-02-11T08:13:32.230Z,2.30
2019-02-11T08:17:46.779Z,3.23
2019-02-11T08:21:59.716Z,2.93
2019-02-11T08:26:12.034Z,2.40
2019-02-11T08:30:24.983Z,2.33
2019-02-11T08:34:37.479Z,2.70
2019-02-11T08:38:49.798Z,3.23
2019-02-11T08:43:02.203Z,2.83
2019-02-11T08:47:14.989Z,3.20
2019-02-11T08:51:27.458Z,2.47
2019-02-11T08:55:39.857Z,3.17
2019-02-11T08:59:52.717Z,2.90
2019-02-11T09:04:05.414Z,2.53
2019-02-11T09:08:18.396Z,2.93
2019-02-11T09:12:30.863Z,2.80
2019-02-11T09:16:43.176Z,3.33
2019-02-11T09:20:56.163Z,3.20
2019-02-11T09:25:09.748Z,3.07
2019-02-11T09:29:22.334Z,2.77
2019-02-11T09:33:35.152Z,2.50
2019-02-11T09:37:47.611Z,2.80
2019-02-11T09:42:00.012Z,2.87
2019-02-11T09:46:12.918Z,2.90
2019-02-11T09:50:41.876Z,3.00
2019-02-11T09:54:54.376Z,3.00
2019-02-11T09:59:07.357Z,2.30
2019-02-11T10:03:19.995Z,2.37
2019-02-11T10:07:32.424Z,2.20
2019-02-11T10:11:45.318Z,2.53
2019-02-11T10:15:57.576Z,2.70
2019-02-11T10:20:10.985Z,2.70
2019-02-11T10:24:23.335Z,2.63
2019-02-11T10:28:35.631Z,2.93
2019-02-11T10:32:48.494Z,2.83
2019-02-11T10:37:00.981Z,3.30
2019-02-11T10:41:13.289Z,2.93
2019-02-11T10:45:25.713Z,2.83
2019-02-11T10:49:38.418Z,2.40
2019-02-11T10:53:51.455Z,2.73
2019-02-11T10:58:04.196Z,2.43
2019-02-11T11:02:16.801Z,2.60
2019-02-11T11:06:29.699Z,2.50
2019-02-11T11:10:42.149Z,2.67
2019-02-11T11:14:54.565Z,3.00
2019-02-11T11:19:07.353Z,2.37
2019-02-11T11:23:19.809Z,3.53
2019-02-11T11:27:32.117Z,2.40
2019-02-11T11:31:45.016Z,2.83
2019-02-11T11:35:57.535Z,2.30
2019-02-11T11:40:10.967Z,1.87
2019-02-11T11:44:23.314Z,2.13
2019-02-11T11:48:36.106Z,1.93
2019-02-11T11:52:48.660Z,1.57
2019-02-11T11:57:01.072Z,2.00
2019-02-11T12:01:18.904Z,1.70
2019-02-11T12:05:28.375Z,1.50
2019-02-11T12:09:43.781Z,1.70
2019-02-11T12:13:55.051Z,1.57
2019-02-11T12:18:07.459Z,2.00
2019-02-11T12:22:20.343Z,1.83
2019-02-11T12:26:32.812Z,2.00
2019-02-11T12:30:46.290Z,1.70
2019-02-11T12:34:58.671Z,2.03
2019-02-11T12:39:11.609Z,1.90
2019-02-11T12:43:24.200Z,2.30
2019-02-11T12:47:36.615Z,1.90
2019-02-11T12:51:49.413Z,2.27
2019-02-11T12:56:02.881Z,1.70
2019-02-11T13:00:18.075Z,1.23
2019-02-11T13:04:30.756Z,1.60
2019-02-11T13:08:43.645Z,1.63
2019-02-11T13:12:56.252Z,1.30
2019-02-11T13:17:15.478Z,1.20
2019-02-11T13:21:22.963Z,1.30
2019-02-11T13:25:35.433Z,1.50
2019-02-11T13:29:48.415Z,1.97
2019-02-11T13:34:00.971Z,1.20
2019-02-11T13:38:13.287Z,2.00
2019-02-11T13:42:26.889Z,1.83
2019-02-11T13:46:39.726Z,2.27
2019-02-11T13:50:52.382Z,2.20
2019-02-11T13:55:04.981Z,1.37
2019-02-11T13:59:17.578Z,1.30
2019-02-11T14:03:30.042Z,1.10
2019-02-11T14:07:42.506Z,1.00
2019-02-11T14:11:56.050Z,1.30
2019-02-11T14:16:08.665Z,1.40
2019-02-11T14:20:22.926Z,1.13
2019-02-11T14:24:35.779Z,1.30
2019-02-11T14:28:49.607Z,1.83
2019-02-11T14:33:02.272Z,2.20
2019-02-11T14:37:15.051Z,2.00
2019-02-11T14:41:27.409Z,1.50
2019-02-11T14:45:42.707Z,1.67
2019-02-11T14:49:58.383Z,1.30
2019-02-11T14:54:11.010Z,1.40
2019-02-11T14:58:23.407Z,1.33
2019-02-11T15:02:35.868Z,1.40
2019-02-11T15:06:48.679Z,1.50
2019-02-11T15:11:01.171Z,1.33
2019-02-11T15:15:13.470Z,1.80
2019-02-11T15:19:26.829Z,1.13
2019-02-11T15:23:39.232Z,1.43
2019-02-11T15:27:51.925Z,1.80
2019-02-11T15:32:04.492Z,1.63
2019-02-11T15:36:16.996Z,1.33
2019-02-11T15:40:29.752Z,1.40
2019-02-11T15:44:42.321Z,1.30
2019-02-11T15:48:54.648Z,1.27
2019-02-11T15:53:07.540Z,1.70
2019-02-11T15:57:19.995Z,1.60
2019-02-11T16:01:32.777Z,1.87
2019-02-11T16:05:49.643Z,1.93
2019-02-11T16:09:59.444Z,1.50
2019-02-11T16:14:12.172Z,2.27
2019-02-11T16:18:27.742Z,1.93
2019-02-11T16:22:42.210Z,2.00
2019-02-11T16:26:54.893Z,1.90
2019-02-11T16:31:07.297Z,2.30
2019-02-11T16:35:19.620Z,2.03
2019-02-11T16:39:32.400Z,2.17
2019-02-11T16:43:45.993Z,2.10
2019-02-11T16:47:58.592Z,2.37
2019-02-11T16:52:12.049Z,1.70
2019-02-11T16:56:24.352Z,1.87
2019-02-11T17:00:37.244Z,2.07
2019-02-11T17:04:49.788Z,1.97
2019-02-11T17:09:02.956Z,1.87
2019-02-11T17:13:15.453Z,1.63
2019-02-11T17:17:27.860Z,1.87
2019-02-11T17:21:40.618Z,1.97
2019-02-11T17:25:53.249Z,1.83
2019-02-11T17:30:07.936Z,2.13
2019-02-11T17:34:20.402Z,2.20
2019-02-11T17:38:33.285Z,2.10
2019-02-11T17:42:45.741Z,2.07
2019-02-11T17:46:58.152Z,2.27
2019-02-11T17:51:11.102Z,2.43
2019-02-11T17:55:23.708Z,1.97
2019-02-11T17:59:39.410Z,2.53
2019-02-11T18:03:55.749Z,2.47
2019-02-11T18:08:11.865Z,12.10
2019-02-11T18:12:28.280Z,29.57
2019-02-11T18:16:45.862Z,4.63
2019-02-11T18:21:03.989Z,16.10
2019-02-11T18:25:22.285Z,11.23
2019-02-11T18:29:39.867Z,8.00
2019-02-11T18:34:01.140Z,7.20
2019-02-11T18:38:17.045Z,6.73
2019-02-11T18:42:33.983Z,5.47
2019-02-11T18:46:52.353Z,3.90
2019-02-11T18:51:13.685Z,3.43
2019-02-11T18:55:26.296Z,4.27
2019-02-11T18:59:39.021Z,4.73
2019-02-11T19:03:51.763Z,4.83
2019-02-11T19:08:04.220Z,3.83
2019-02-11T19:12:17.224Z,3.40
2019-02-11T19:16:29.641Z,3.60
2019-02-11T19:20:42.625Z,2.73
2019-02-11T19:24:55.156Z,11.47
2019-02-11T19:29:08.081Z,24.53
2019-02-11T19:33:20.648Z,23.90
2019-02-11T19:37:33.046Z,6.60
2019-02-11T19:41:45.937Z,5.43
2019-02-11T19:45:58.392Z,4.40
2019-02-11T19:50:12.884Z,3.53
2019-02-11T19:54:25.562Z,4.10
2019-02-11T19:58:37.889Z,3.40
2019-02-11T20:02:52.104Z,4.17
2019-02-11T20:07:04.808Z,3.53
2019-02-11T20:11:17.929Z,3.37
2019-02-11T20:15:30.425Z,3.50
2019-02-11T20:19:43.407Z,4.50
2019-02-11T20:23:55.870Z,3.97
2019-02-11T20:28:08.440Z,3.73
2019-02-11T20:32:21.164Z,11.40
2019-02-11T20:36:33.637Z,41.07
2019-02-11T20:40:46.621Z,48.97
2019-02-11T20:44:59.177Z,20.57
2019-02-11T20:49:12.161Z,11.80
2019-02-11T20:53:23.766Z,8.83
2019-02-11T20:57:36.468Z,6.63
2019-02-11T21:01:48.837Z,5.00
2019-02-11T21:06:01.885Z,4.87
2019-02-11T21:10:15.487Z,4.83
2019-02-11T21:14:28.029Z,4.53
2019-02-11T21:18:40.333Z,5.87
2019-02-11T21:22:53.745Z,5.20
2019-02-11T21:27:06.341Z,5.80
2019-02-11T21:31:19.147Z,5.43
2019-02-11T21:35:31.654Z,5.67
2019-02-11T21:39:44.631Z,5.53
2019-02-11T21:43:57.202Z,5.80
2019-02-11T21:48:09.600Z,6.20
2019-02-11T21:52:22.493Z,6.47
2019-02-11T21:56:35.052Z,4.73
2019-02-11T22:00:48.131Z,5.03
2019-02-11T22:05:00.604Z,7.00
2019-02-11T22:09:13.693Z,6.90
2019-02-11T22:13:26.252Z,6.70
2019-02-11T22:17:38.665Z,6.43
2019-02-11T22:21:50.986Z,7.10
2019-02-11T22:26:03.760Z,5.90
2019-02-11T22:30:17.924Z,5.37
2019-02-11T22:34:30.337Z,5.13
2019-02-11T22:38:42.952Z,5.43
2019-02-11T22:42:55.318Z,5.30
2019-02-11T22:47:07.722Z,6.30
2019-02-11T22:51:20.611Z,6.87
2019-02-11T22:55:33.068Z,5.10
2019-02-11T22:59:45.486Z,4.90
2019-02-11T23:03:58.635Z,5.43
2019-02-11T23:08:11.128Z,5.03
2019-02-11T23:12:24.224Z,5.17
2019-02-11T23:16:36.584Z,5.00
2019-02-11T23:20:52.027Z,5.47
2019-02-11T23:25:03.318Z,4.17
2019-02-11T23:29:15.876Z,4.80
2019-02-11T23:33:28.183Z,4.90
2019-02-11T23:37:40.655Z,4.53
2019-02-11T23:41:53.385Z,4.47
2019-02-11T23:46:05.936Z,5.00
2019-02-11T23:50:18.838Z,4.60
2019-02-11T23:54:32.772Z,4.90
2019-02-11T23:58:45.312Z,4.83
